sensor_id;sensor_type;location;lat;lon;timestamp;pressure;altitude;pressure_sealevel;temperature;humidity
70909;BME280;58554;52.006;5.926;2022-12-20T00:00:44;100552.97;;;8.04;83.37
70909;BME280;58554;52.006;5.926;2022-12-20T00:03:14;100535.16;;;8.09;83.25
70909;BME280;58554;52.006;5.926;2022-12-20T00:05:42;100533.31;;;8.11;83.10
70909;BME280;58554;52.006;5.926;2022-12-20T00:08:09;100529.75;;;8.13;83.14
70909;BME280;58554;52.006;5.926;2022-12-20T00:10:37;100517.34;;;8.15;82.57
70909;BME280;58554;52.006;5.926;2022-12-20T00:13:04;100515.50;;;8.17;83.00
70909;BME280;58554;52.006;5.926;2022-12-20T00:15:31;100506.81;;;8.15;83.09
70909;BME280;58554;52.006;5.926;2022-12-20T00:17:58;100505.09;;;8.14;82.79
70909;BME280;58554;52.006;5.926;2022-12-20T00:20:27;100518.19;;;8.15;82.83
70909;BME280;58554;52.006;5.926;2022-12-20T00:22:54;100513.63;;;8.19;82.32
70909;BME280;58554;52.006;5.926;2022-12-20T00:25:21;100520.53;;;8.21;81.96
70909;BME280;58554;52.006;5.926;2022-12-20T00:27:50;100518.56;;;8.25;82.22
70909;BME280;58554;52.006;5.926;2022-12-20T00:30:17;100514.84;;;8.29;81.64
70909;BME280;58554;52.006;5.926;2022-12-20T00:32:44;100522.53;;;8.34;81.53
70909;BME280;58554;52.006;5.926;2022-12-20T00:35:11;100514.31;;;8.40;81.60
70909;BME280;58554;52.006;5.926;2022-12-20T00:37:41;100509.09;;;8.38;81.79
70909;BME280;58554;52.006;5.926;2022-12-20T00:40:08;100518.47;;;8.44;81.40
70909;BME280;58554;52.006;5.926;2022-12-20T00:42:35;100515.53;;;8.50;81.30
70909;BME280;58554;52.006;5.926;2022-12-20T00:45:02;100517.03;;;8.54;80.77
70909;BME280;58554;52.006;5.926;2022-12-20T00:47:29;100511.44;;;8.60;81.42
70909;BME280;58554;52.006;5.926;2022-12-20T00:49:55;100514.78;;;8.64;80.96
70909;BME280;58554;52.006;5.926;2022-12-20T00:52:22;100516.31;;;8.68;81.20
70909;BME280;58554;52.006;5.926;2022-12-20T00:54:51;100517.09;;;8.70;80.80
70909;BME280;58554;52.006;5.926;2022-12-20T00:57:18;100509.88;;;8.73;80.87
70909;BME280;58554;52.006;5.926;2022-12-20T00:59:44;100521.09;;;8.77;80.30
70909;BME280;58554;52.006;5.926;2022-12-20T01:02:11;100511.16;;;8.82;80.78
70909;BME280;58554;52.006;5.926;2022-12-20T01:04:37;100508.34;;;8.85;80.40
70909;BME280;58554;52.006;5.926;2022-12-20T01:07:04;100499.50;;;8.86;80.69
70909;BME280;58554;52.006;5.926;2022-12-20T01:09:30;100515.25;;;8.88;80.90
70909;BME280;58554;52.006;5.926;2022-12-20T01:12:00;100497.56;;;8.90;80.07
70909;BME280;58554;52.006;5.926;2022-12-20T01:14:26;100501.81;;;8.92;79.85
70909;BME280;58554;52.006;5.926;2022-12-20T01:16:53;100506.06;;;8.95;80.20
70909;BME280;58554;52.006;5.926;2022-12-20T01:19:20;100491.06;;;8.96;79.29
70909;BME280;58554;52.006;5.926;2022-12-20T01:21:46;100494.47;;;8.98;79.81
70909;BME280;58554;52.006;5.926;2022-12-20T01:24:14;100496.34;;;8.96;78.70
70909;BME280;58554;52.006;5.926;2022-12-20T01:26:43;100507.66;;;8.98;78.57
70909;BME280;58554;52.006;5.926;2022-12-20T01:29:13;100514.47;;;9.02;79.67
70909;BME280;58554;52.006;5.926;2022-12-20T01:31:40;100512.59;;;9.04;79.49
70909;BME280;58554;52.006;5.926;2022-12-20T01:34:07;100508.09;;;9.06;80.08
70909;BME280;58554;52.006;5.926;2022-12-20T01:36:35;100514.25;;;9.06;80.42
70909;BME280;58554;52.006;5.926;2022-12-20T01:39:04;100513.47;;;9.04;80.02
70909;BME280;58554;52.006;5.926;2022-12-20T01:41:35;100508.22;;;9.04;80.47
70909;BME280;58554;52.006;5.926;2022-12-20T01:44:04;100506.50;;;9.03;80.42
70909;BME280;58554;52.006;5.926;2022-12-20T01:46:55;100497.72;;;9.03;80.50
70909;BME280;58554;52.006;5.926;2022-12-20T01:49:24;100518.00;;;9.02;81.14
70909;BME280;58554;52.006;5.926;2022-12-20T01:51:59;100509.38;;;8.99;81.08
70909;BME280;58554;52.006;5.926;2022-12-20T01:54:32;100511.34;;;8.95;81.65
70909;BME280;58554;52.006;5.926;2022-12-20T01:57:07;100505.47;;;8.90;82.10
70909;BME280;58554;52.006;5.926;2022-12-20T01:59:41;100497.78;;;8.85;82.13
70909;BME280;58554;52.006;5.926;2022-12-20T02:02:14;100503.25;;;8.82;82.90
70909;BME280;58554;52.006;5.926;2022-12-20T02:04:41;100493.78;;;8.78;82.99
70909;BME280;58554;52.006;5.926;2022-12-20T02:07:11;100501.13;;;8.73;83.47
70909;BME280;58554;52.006;5.926;2022-12-20T02:09:44;100503.13;;;8.68;83.75
70909;BME280;58554;52.006;5.926;2022-12-20T02:12:14;100511.28;;;8.63;84.33
70909;BME280;58554;52.006;5.926;2022-12-20T02:14:58;100507.97;;;8.60;84.57
70909;BME280;58554;52.006;5.926;2022-12-20T02:17:44;100487.06;;;8.57;85.28
70909;BME280;58554;52.006;5.926;2022-12-20T02:20:51;100492.47;;;8.53;85.34
70909;BME280;58554;52.006;5.926;2022-12-20T02:30:13;100461.59;;;8.40;87.63
70909;BME280;58554;52.006;5.926;2022-12-20T02:32:47;100456.47;;;8.37;87.43
70909;BME280;58554;52.006;5.926;2022-12-20T02:35:26;100452.25;;;8.34;87.39
70909;BME280;58554;52.006;5.926;2022-12-20T02:37:56;100453.25;;;8.31;87.58
70909;BME280;58554;52.006;5.926;2022-12-20T02:40:26;100449.84;;;8.29;87.99
70909;BME280;58554;52.006;5.926;2022-12-20T02:42:59;100454.34;;;8.27;88.81
70909;BME280;58554;52.006;5.926;2022-12-20T02:45:35;100453.47;;;8.27;88.52
70909;BME280;58554;52.006;5.926;2022-12-20T02:48:05;100461.47;;;8.25;89.05
70909;BME280;58554;52.006;5.926;2022-12-20T02:50:39;100460.59;;;8.25;88.84
70909;BME280;58554;52.006;5.926;2022-12-20T02:53:11;100457.97;;;8.25;89.04
70909;BME280;58554;52.006;5.926;2022-12-20T02:55:42;100463.16;;;8.26;88.71
70909;BME280;58554;52.006;5.926;2022-12-20T02:58:21;100443.97;;;8.24;88.58
70909;BME280;58554;52.006;5.926;2022-12-20T03:00:58;100443.88;;;8.26;88.74
70909;BME280;58554;52.006;5.926;2022-12-20T03:03:33;100444.72;;;8.26;88.72
70909;BME280;58554;52.006;5.926;2022-12-20T03:06:00;100444.59;;;8.29;89.00
70909;BME280;58554;52.006;5.926;2022-12-20T03:08:27;100440.31;;;8.27;88.72
70909;BME280;58554;52.006;5.926;2022-12-20T03:10:55;100442.94;;;8.27;88.58
70909;BME280;58554;52.006;5.926;2022-12-20T03:13:22;100442.94;;;8.27;88.90
70909;BME280;58554;52.006;5.926;2022-12-20T03:15:50;100446.34;;;8.29;89.04
70909;BME280;58554;52.006;5.926;2022-12-20T03:18:20;100437.59;;;8.28;89.01
70909;BME280;58554;52.006;5.926;2022-12-20T03:20:46;100441.06;;;8.29;89.33
70909;BME280;58554;52.006;5.926;2022-12-20T03:23:13;100438.38;;;8.30;89.14
70909;BME280;58554;52.006;5.926;2022-12-20T03:25:40;100432.19;;;8.31;89.12
70909;BME280;58554;52.006;5.926;2022-12-20T03:28:06;100430.47;;;8.30;89.04
70909;BME280;58554;52.006;5.926;2022-12-20T03:30:33;100422.63;;;8.29;89.71
70909;BME280;58554;52.006;5.926;2022-12-20T03:32:59;100431.41;;;8.29;89.69
70909;BME280;58554;52.006;5.926;2022-12-20T03:35:28;100427.84;;;8.30;89.69
70909;BME280;58554;52.006;5.926;2022-12-20T03:37:55;100437.53;;;8.30;89.53
70909;BME280;58554;52.006;5.926;2022-12-20T03:40:22;100428.78;;;8.29;89.58
70909;BME280;58554;52.006;5.926;2022-12-20T03:42:48;100433.09;;;8.30;89.66
70909;BME280;58554;52.006;5.926;2022-12-20T03:45:15;100433.03;;;8.32;89.32
70909;BME280;58554;52.006;5.926;2022-12-20T03:47:42;100438.28;;;8.32;89.48
70909;BME280;58554;52.006;5.926;2022-12-20T03:50:10;100437.34;;;8.33;89.47
70909;BME280;58554;52.006;5.926;2022-12-20T03:52:39;100418.91;;;8.33;89.18
70909;BME280;58554;52.006;5.926;2022-12-20T03:55:07;100419.78;;;8.34;89.19
70909;BME280;58554;52.006;5.926;2022-12-20T03:57:34;100412.66;;;8.36;89.21
70909;BME280;58554;52.006;5.926;2022-12-20T04:00:02;100412.66;;;8.36;89.10
70909;BME280;58554;52.006;5.926;2022-12-20T04:02:29;100408.22;;;8.36;89.08
70909;BME280;58554;52.006;5.926;2022-12-20T04:04:56;100414.25;;;8.38;88.81
70909;BME280;58554;52.006;5.926;2022-12-20T04:07:22;100414.25;;;8.38;89.07
70909;BME280;58554;52.006;5.926;2022-12-20T04:09:51;100418.56;;;8.39;88.98
70909;BME280;58554;52.006;5.926;2022-12-20T04:12:18;100415.78;;;8.42;88.96
70909;BME280;58554;52.006;5.926;2022-12-20T04:14:44;100412.13;;;8.45;88.81
70909;BME280;58554;52.006;5.926;2022-12-20T04:17:11;100411.13;;;8.47;88.67
70909;BME280;58554;52.006;5.926;2022-12-20T04:19:37;100406.59;;;8.49;88.75
70909;BME280;58554;52.006;5.926;2022-12-20T04:22:04;100401.19;;;8.52;88.59
70909;BME280;58554;52.006;5.926;2022-12-20T04:24:30;100395.91;;;8.52;88.65
70909;BME280;58554;52.006;5.926;2022-12-20T04:26:59;100402.88;;;8.53;88.75
70909;BME280;58554;52.006;5.926;2022-12-20T04:29:26;100393.09;;;8.56;88.56
70909;BME280;58554;52.006;5.926;2022-12-20T04:31:53;100391.22;;;8.58;88.33
70909;BME280;58554;52.006;5.926;2022-12-20T04:34:21;100397.28;;;8.60;88.26
70909;BME280;58554;52.006;5.926;2022-12-20T04:36:47;100404.25;;;8.61;88.32
70909;BME280;58554;52.006;5.926;2022-12-20T04:39:14;100404.06;;;8.64;88.38
70909;BME280;58554;52.006;5.926;2022-12-20T04:41:40;100407.66;;;8.63;88.41
70909;BME280;58554;52.006;5.926;2022-12-20T04:44:10;100398.72;;;8.65;88.27
70909;BME280;58554;52.006;5.926;2022-12-20T04:46:36;100388.19;;;8.65;88.15
70909;BME280;58554;52.006;5.926;2022-12-20T04:49:03;100393.28;;;8.68;88.09
70909;BME280;58554;52.006;5.926;2022-12-20T04:51:30;100377.38;;;8.70;87.78
70909;BME280;58554;52.006;5.926;2022-12-20T04:53:56;100377.22;;;8.73;87.60
70909;BME280;58554;52.006;5.926;2022-12-20T04:56:25;100384.03;;;8.77;88.00
70909;BME280;58554;52.006;5.926;2022-12-20T04:58:55;100382.22;;;8.78;87.97
70909;BME280;58554;52.006;5.926;2022-12-20T05:01:26;100378.56;;;8.80;87.77
70909;BME280;58554;52.006;5.926;2022-12-20T05:03:53;100389.88;;;8.82;87.98
70909;BME280;58554;52.006;5.926;2022-12-20T05:06:20;100389.78;;;8.84;87.66
70909;BME280;58554;52.006;5.926;2022-12-20T05:08:47;100390.63;;;8.84;87.59
70909;BME280;58554;52.006;5.926;2022-12-20T05:11:14;100395.72;;;8.87;87.65
70909;BME280;58554;52.006;5.926;2022-12-20T05:13:41;100400.91;;;8.89;87.43
70909;BME280;58554;52.006;5.926;2022-12-20T05:16:07;100382.38;;;8.90;87.53
70909;BME280;58554;52.006;5.926;2022-12-20T05:18:36;100398.03;;;8.93;87.71
70909;BME280;58554;52.006;5.926;2022-12-20T05:21:05;100392.94;;;8.90;87.79
70909;BME280;58554;52.006;5.926;2022-12-20T05:23:32;100386.81;;;8.90;87.98
70909;BME280;58554;52.006;5.926;2022-12-20T05:25:58;100380.00;;;8.86;88.36
70909;BME280;58554;52.006;5.926;2022-12-20T05:28:26;100374.06;;;8.82;88.91
70909;BME280;58554;52.006;5.926;2022-12-20T05:30:53;100374.13;;;8.81;88.82
70909;BME280;58554;52.006;5.926;2022-12-20T05:33:20;100371.50;;;8.81;89.11
70909;BME280;58554;52.006;5.926;2022-12-20T05:35:49;100381.19;;;8.80;89.75
70909;BME280;58554;52.006;5.926;2022-12-20T05:38:15;100368.09;;;8.79;89.54
70909;BME280;58554;52.006;5.926;2022-12-20T05:40:42;100355.78;;;8.79;89.77
70909;BME280;58554;52.006;5.926;2022-12-20T05:43:08;100359.34;;;8.78;89.40
70909;BME280;58554;52.006;5.926;2022-12-20T05:45:35;100353.22;;;8.78;89.86
70909;BME280;58554;52.006;5.926;2022-12-20T05:48:01;100349.00;;;8.75;89.99
70909;BME280;58554;52.006;5.926;2022-12-20T05:50:28;100350.66;;;8.76;89.93
70909;BME280;58554;52.006;5.926;2022-12-20T05:52:57;100352.53;;;8.74;90.21
70909;BME280;58554;52.006;5.926;2022-12-20T05:55:24;100352.53;;;8.74;90.25
70909;BME280;58554;52.006;5.926;2022-12-20T05:57:50;100347.34;;;8.72;90.44
70909;BME280;58554;52.006;5.926;2022-12-20T06:00:17;100334.94;;;8.75;90.25
70909;BME280;58554;52.006;5.926;2022-12-20T06:02:44;100334.00;;;8.76;90.29
70909;BME280;58554;52.006;5.926;2022-12-20T06:05:11;100338.25;;;8.78;90.30
70909;BME280;58554;52.006;5.926;2022-12-20T06:07:37;100337.50;;;8.76;90.39
70909;BME280;58554;52.006;5.926;2022-12-20T06:10:08;100340.97;;;8.77;90.29
70909;BME280;58554;52.006;5.926;2022-12-20T06:12:39;100345.41;;;8.76;90.28
70909;BME280;58554;52.006;5.926;2022-12-20T06:15:06;100344.56;;;8.76;90.06
70909;BME280;58554;52.006;5.926;2022-12-20T06:17:33;100336.66;;;8.76;90.14
70909;BME280;58554;52.006;5.926;2022-12-20T06:20:00;100334.00;;;8.76;89.94
70909;BME280;58554;52.006;5.926;2022-12-20T06:22:27;100321.88;;;8.73;89.98
70909;BME280;58554;52.006;5.926;2022-12-20T06:24:53;100331.53;;;8.72;90.21
70909;BME280;58554;52.006;5.926;2022-12-20T06:27:23;100328.91;;;8.72;90.34
70909;BME280;58554;52.006;5.926;2022-12-20T06:29:49;100321.94;;;8.71;90.24
70909;BME280;58554;52.006;5.926;2022-12-20T06:32:16;100303.41;;;8.73;90.01
70909;BME280;58554;52.006;5.926;2022-12-20T06:34:43;100306.69;;;8.77;90.13
70909;BME280;58554;52.006;5.926;2022-12-20T06:37:09;100304.25;;;8.73;90.11
70909;BME280;58554;52.006;5.926;2022-12-20T06:39:36;100298.97;;;8.73;89.84
70909;BME280;58554;52.006;5.926;2022-12-20T06:42:04;100299.66;;;8.77;89.84
70909;BME280;58554;52.006;5.926;2022-12-20T06:44:34;100301.44;;;8.77;89.99
70909;BME280;58554;52.006;5.926;2022-12-20T06:47:00;100298.72;;;8.78;89.83
70909;BME280;58554;52.006;5.926;2022-12-20T06:49:27;100290.81;;;8.78;90.00
70909;BME280;58554;52.006;5.926;2022-12-20T06:51:54;100298.63;;;8.80;89.67
70909;BME280;58554;52.006;5.926;2022-12-20T06:54:20;100288.94;;;8.80;89.57
70909;BME280;58554;52.006;5.926;2022-12-20T06:56:47;100291.47;;;8.82;89.57
70909;BME280;58554;52.006;5.926;2022-12-20T06:59:14;100292.31;;;8.82;89.27
70909;BME280;58554;52.006;5.926;2022-12-20T07:01:43;100306.28;;;8.84;89.39
70909;BME280;58554;52.006;5.926;2022-12-20T07:04:10;100304.47;;;8.85;89.15
70909;BME280;58554;52.006;5.926;2022-12-20T07:06:36;100297.41;;;8.85;89.26
70909;BME280;58554;52.006;5.926;2022-12-20T07:09:03;100297.41;;;8.85;89.25
70909;BME280;58554;52.006;5.926;2022-12-20T07:11:31;100301.84;;;8.85;89.26
70909;BME280;58554;52.006;5.926;2022-12-20T07:13:58;100315.03;;;8.85;89.13
70909;BME280;58554;52.006;5.926;2022-12-20T07:16:25;100299.31;;;8.83;88.98
70909;BME280;58554;52.006;5.926;2022-12-20T07:18:54;100294.78;;;8.85;88.59
70909;BME280;58554;52.006;5.926;2022-12-20T07:21:21;100295.66;;;8.86;88.05
70909;BME280;58554;52.006;5.926;2022-12-20T07:23:47;100310.44;;;8.88;88.16
70909;BME280;58554;52.006;5.926;2022-12-20T07:26:14;100307.78;;;8.88;87.42
70909;BME280;58554;52.006;5.926;2022-12-20T07:28:41;100306.84;;;8.89;87.21
70909;BME280;58554;52.006;5.926;2022-12-20T07:31:08;100308.34;;;8.93;87.76
70909;BME280;58554;52.006;5.926;2022-12-20T07:33:35;100310.91;;;8.95;86.86
70909;BME280;58554;52.006;5.926;2022-12-20T07:36:06;100307.25;;;8.98;86.41
70909;BME280;58554;52.006;5.926;2022-12-20T07:38:35;100303.69;;;8.99;86.27
70909;BME280;58554;52.006;5.926;2022-12-20T07:41:06;100308.97;;;8.99;86.04
70909;BME280;58554;52.006;5.926;2022-12-20T07:43:33;100298.34;;;9.00;85.78
70909;BME280;58554;52.006;5.926;2022-12-20T07:46:01;100303.50;;;9.02;86.07
70909;BME280;58554;52.006;5.926;2022-12-20T07:48:31;100298.97;;;9.04;85.46
70909;BME280;58554;52.006;5.926;2022-12-20T07:51:02;100292.78;;;9.05;86.03
70909;BME280;58554;52.006;5.926;2022-12-20T07:53:37;100297.03;;;9.07;85.71
70909;BME280;58554;52.006;5.926;2022-12-20T07:56:08;100293.53;;;9.07;85.81
70909;BME280;58554;52.006;5.926;2022-12-20T07:58:38;100296.19;;;9.07;85.38
70909;BME280;58554;52.006;5.926;2022-12-20T08:01:08;100304.84;;;9.09;85.30
70909;BME280;58554;52.006;5.926;2022-12-20T08:03:38;100317.97;;;9.10;85.72
70909;BME280;58554;52.006;5.926;2022-12-20T08:06:12;100315.31;;;9.10;85.45
70909;BME280;58554;52.006;5.926;2022-12-20T08:08:45;100317.84;;;9.12;85.74
70909;BME280;58554;52.006;5.926;2022-12-20T08:11:15;100322.28;;;9.11;85.84
70909;BME280;58554;52.006;5.926;2022-12-20T08:13:45;100331.03;;;9.12;85.68
70909;BME280;58554;52.006;5.926;2022-12-20T08:16:14;100328.31;;;9.13;85.75
70909;BME280;58554;52.006;5.926;2022-12-20T08:18:42;100324.84;;;9.13;85.23
70909;BME280;58554;52.006;5.926;2022-12-20T08:21:11;100315.13;;;9.13;85.24
70909;BME280;58554;52.006;5.926;2022-12-20T08:23:38;100313.44;;;9.12;84.33
70909;BME280;58554;52.006;5.926;2022-12-20T08:26:05;100310.81;;;9.12;85.21
70909;BME280;58554;52.006;5.926;2022-12-20T08:28:32;100317.84;;;9.12;84.74
70909;BME280;58554;52.006;5.926;2022-12-20T08:31:02;100317.09;;;9.10;85.23
70909;BME280;58554;52.006;5.926;2022-12-20T08:33:31;100316.25;;;9.09;85.35
70909;BME280;58554;52.006;5.926;2022-12-20T08:35:58;100312.84;;;9.07;85.25
70909;BME280;58554;52.006;5.926;2022-12-20T08:38:30;100310.22;;;9.07;85.65
70909;BME280;58554;52.006;5.926;2022-12-20T08:41:01;100311.81;;;9.10;85.98
70909;BME280;58554;52.006;5.926;2022-12-20T08:43:29;100304.16;;;9.05;85.94
70909;BME280;58554;52.006;5.926;2022-12-20T08:45:56;100305.28;;;9.01;85.64
70909;BME280;58554;52.006;5.926;2022-12-20T08:48:23;100308.88;;;9.00;86.12
70909;BME280;58554;52.006;5.926;2022-12-20T08:50:54;100307.09;;;9.01;86.21
70909;BME280;58554;52.006;5.926;2022-12-20T08:53:22;100299.94;;;9.03;86.11
70909;BME280;58554;52.006;5.926;2022-12-20T08:56:02;100301.53;;;9.05;86.22
70909;BME280;58554;52.006;5.926;2022-12-20T08:58:30;100306.72;;;9.07;85.62
70909;BME280;58554;52.006;5.926;2022-12-20T09:00:57;100297.88;;;9.08;86.21
70909;BME280;58554;52.006;5.926;2022-12-20T09:03:24;100299.50;;;9.10;86.23
70909;BME280;58554;52.006;5.926;2022-12-20T09:05:51;100301.19;;;9.11;86.24
70909;BME280;58554;52.006;5.926;2022-12-20T09:08:17;100305.59;;;9.11;85.89
70909;BME280;58554;52.006;5.926;2022-12-20T09:10:44;100318.72;;;9.12;86.37
70909;BME280;58554;52.006;5.926;2022-12-20T09:13:13;100307.50;;;9.09;86.73
70909;BME280;58554;52.006;5.926;2022-12-20T09:15:40;100305.88;;;9.06;86.94
70909;BME280;58554;52.006;5.926;2022-12-20T09:18:07;100314.91;;;9.02;87.25
70909;BME280;58554;52.006;5.926;2022-12-20T09:20:34;100321.31;;;8.98;87.44
70909;BME280;58554;52.006;5.926;2022-12-20T09:23:00;100315.34;;;8.95;87.68
70909;BME280;58554;52.006;5.926;2022-12-20T09:25:27;100310.34;;;8.90;88.19
70909;BME280;58554;52.006;5.926;2022-12-20T09:27:54;100314.09;;;8.86;88.44
70909;BME280;58554;52.006;5.926;2022-12-20T09:30:23;100308.91;;;8.84;88.54
70909;BME280;58554;52.006;5.926;2022-12-20T09:32:50;100304.66;;;8.82;88.88
70909;BME280;58554;52.006;5.926;2022-12-20T09:35:17;100306.47;;;8.81;89.03
70909;BME280;58554;52.006;5.926;2022-12-20T09:37:43;100298.72;;;8.78;88.98
70909;BME280;58554;52.006;5.926;2022-12-20T09:40:16;100301.34;;;8.78;89.33
70909;BME280;58554;52.006;5.926;2022-12-20T09:42:46;100302.47;;;8.74;89.57
70909;BME280;58554;52.006;5.926;2022-12-20T09:45:19;100293.78;;;8.72;89.60
70909;BME280;58554;52.006;5.926;2022-12-20T09:47:53;100289.47;;;8.71;89.81
70909;BME280;58554;52.006;5.926;2022-12-20T09:50:39;100296.44;;;8.72;89.91
70909;BME280;58554;52.006;5.926;2022-12-20T09:53:26;100285.03;;;8.71;90.06
70909;BME280;58554;52.006;5.926;2022-12-20T09:56:11;100293.53;;;8.77;89.98
70909;BME280;58554;52.006;5.926;2022-12-20T09:58:57;100290.81;;;8.78;90.23
70909;BME280;58554;52.006;5.926;2022-12-20T10:01:29;100288.25;;;8.77;90.15
70909;BME280;58554;52.006;5.926;2022-12-20T10:04:02;100291.75;;;8.77;89.95
70909;BME280;58554;52.006;5.926;2022-12-20T10:06:41;100283.84;;;8.77;90.04
70909;BME280;58554;52.006;5.926;2022-12-20T10:09:34;100282.97;;;8.77;90.14
70909;BME280;58554;52.006;5.926;2022-12-20T10:12:20;100279.50;;;8.76;89.89
70909;BME280;58554;52.006;5.926;2022-12-20T10:15:12;100283.84;;;8.77;90.19
70909;BME280;58554;52.006;5.926;2022-12-20T10:17:59;100282.97;;;8.77;90.14
70909;BME280;58554;52.006;5.926;2022-12-20T10:20:45;100282.97;;;8.77;90.30
70909;BME280;58554;52.006;5.926;2022-12-20T10:23:26;100279.41;;;8.78;90.13
70909;BME280;58554;52.006;5.926;2022-12-20T10:26:00;100278.66;;;8.76;90.69
70909;BME280;58554;52.006;5.926;2022-12-20T10:28:29;100276.88;;;8.76;90.63
70909;BME280;58554;52.006;5.926;2022-12-20T10:31:00;100281.97;;;8.79;90.39
70909;BME280;58554;52.006;5.926;2022-12-20T10:33:33;100279.41;;;8.78;90.56
70909;BME280;58554;52.006;5.926;2022-12-20T10:36:19;100280.44;;;8.75;91.06
70909;BME280;58554;52.006;5.926;2022-12-20T10:38:50;100281.44;;;8.72;91.08
70909;BME280;58554;52.006;5.926;2022-12-20T10:41:20;100278.81;;;8.72;90.98
70909;BME280;58554;52.006;5.926;2022-12-20T10:43:55;100276.28;;;8.71;91.45
70909;BME280;58554;52.006;5.926;2022-12-20T10:46:35;100277.13;;;8.71;91.67
70909;BME280;58554;52.006;5.926;2022-12-20T10:49:30;100271.94;;;8.70;91.80
70909;BME280;58554;52.006;5.926;2022-12-20T10:52:00;100272.91;;;8.69;91.59
70909;BME280;58554;52.006;5.926;2022-12-20T10:54:35;100263.19;;;8.69;92.02
70909;BME280;58554;52.006;5.926;2022-12-20T10:57:14;100253.56;;;8.68;92.16
70909;BME280;58554;52.006;5.926;2022-12-20T10:59:48;100266.66;;;8.70;92.08
70909;BME280;58554;52.006;5.926;2022-12-20T11:02:25;100255.09;;;8.72;91.97
70909;BME280;58554;52.006;5.926;2022-12-20T11:05:01;100253.22;;;8.75;92.35
70909;BME280;58554;52.006;5.926;2022-12-20T11:07:52;100253.97;;;8.77;92.32
70909;BME280;58554;52.006;5.926;2022-12-20T11:10:23;100245.22;;;8.76;92.27
70909;BME280;58554;52.006;5.926;2022-12-20T11:12:54;100245.22;;;8.76;92.29
70909;BME280;58554;52.006;5.926;2022-12-20T11:15:24;100245.16;;;8.78;92.14
70909;BME280;58554;52.006;5.926;2022-12-20T11:17:57;100246.00;;;8.78;92.36
70909;BME280;58554;52.006;5.926;2022-12-20T11:20:37;100244.13;;;8.80;92.39
70909;BME280;58554;52.006;5.926;2022-12-20T11:23:20;100235.28;;;8.81;92.05
70909;BME280;58554;52.006;5.926;2022-12-20T11:26:08;100239.69;;;8.81;92.03
70909;BME280;58554;52.006;5.926;2022-12-20T11:29:01;100234.25;;;8.84;92.11
70909;BME280;58554;52.006;5.926;2022-12-20T11:31:46;100223.59;;;8.85;92.12
70909;BME280;58554;52.006;5.926;2022-12-20T11:34:36;100218.22;;;8.87;92.00
70909;BME280;58554;52.006;5.926;2022-12-20T11:37:20;100218.16;;;8.88;91.88
70909;BME280;58554;52.006;5.926;2022-12-20T11:40:10;100225.78;;;8.93;92.40
70909;BME280;58554;52.006;5.926;2022-12-20T11:42:58;100214.47;;;8.91;92.17
70909;BME280;58554;52.006;5.926;2022-12-20T11:45:44;100218.72;;;8.93;92.30
70909;BME280;58554;52.006;5.926;2022-12-20T11:48:44;100216.06;;;8.93;92.29
70909;BME280;58554;52.006;5.926;2022-12-20T11:51:40;100211.66;;;8.94;92.26
70909;BME280;58554;52.006;5.926;2022-12-20T11:54:19;100215.06;;;8.96;92.25
70909;BME280;58554;52.006;5.926;2022-12-20T11:56:50;100211.47;;;8.97;92.21
70909;BME280;58554;52.006;5.926;2022-12-20T11:59:30;100203.47;;;8.99;92.20
70909;BME280;58554;52.006;5.926;2022-12-20T12:02:08;100193.69;;;9.01;92.42
70909;BME280;58554;52.006;5.926;2022-12-20T12:04:42;100208.56;;;9.02;92.10
70909;BME280;58554;52.006;5.926;2022-12-20T12:07:17;100199.72;;;9.03;92.33
70909;BME280;58554;52.006;5.926;2022-12-20T12:09:55;100193.50;;;9.04;92.39
70909;BME280;58554;52.006;5.926;2022-12-20T12:12:30;100201.41;;;9.04;92.72
70909;BME280;58554;52.006;5.926;2022-12-20T12:15:03;100204.03;;;9.04;92.60
70909;BME280;58554;52.006;5.926;2022-12-20T12:17:47;100203.13;;;9.05;93.01
70909;BME280;58554;52.006;5.926;2022-12-20T12:20:27;100198.69;;;9.05;93.10
70909;BME280;58554;52.006;5.926;2022-12-20T12:23:06;100198.59;;;9.07;93.22
70909;BME280;58554;52.006;5.926;2022-12-20T12:25:45;100188.97;;;9.06;93.42
70909;BME280;58554;52.006;5.926;2022-12-20T12:28:12;100186.34;;;9.06;93.23
70909;BME280;58554;52.006;5.926;2022-12-20T12:30:45;100181.81;;;9.08;93.33
70909;BME280;58554;52.006;5.926;2022-12-20T12:33:21;100187.09;;;9.08;93.14
70909;BME280;58554;52.006;5.926;2022-12-20T12:39:15;100182.56;;;9.10;93.10
70909;BME280;58554;52.006;5.926;2022-12-20T12:42:38;100187.84;;;9.10;93.27
70909;BME280;58554;52.006;5.926;2022-12-20T12:45:25;100177.13;;;9.13;93.32
70909;BME280;58554;52.006;5.926;2022-12-20T12:47:58;100175.41;;;9.12;92.91
70909;BME280;58554;52.006;5.926;2022-12-20T12:50:35;100180.69;;;9.12;92.95
70909;BME280;58554;52.006;5.926;2022-12-20T12:53:13;100178.81;;;9.14;92.84
70909;BME280;58554;52.006;5.926;2022-12-20T12:55:44;100177.03;;;9.15;92.99
70909;BME280;58554;52.006;5.926;2022-12-20T12:58:32;100181.34;;;9.16;93.02
70909;BME280;58554;52.006;5.926;2022-12-20T13:01:03;100192.00;;;9.14;93.13
70909;BME280;58554;52.006;5.926;2022-12-20T13:03:45;100191.91;;;9.16;92.95
70909;BME280;58554;52.006;5.926;2022-12-20T13:07:01;100194.47;;;9.17;93.14
70909;BME280;58554;52.006;5.926;2022-12-20T13:09:49;100188.34;;;9.17;92.98
70909;BME280;58554;52.006;5.926;2022-12-20T13:15:51;100180.31;;;9.18;93.04
70909;BME280;58554;52.006;5.926;2022-12-20T13:18:30;100170.59;;;9.19;92.81
70909;BME280;58554;52.006;5.926;2022-12-20T13:27:27;100170.72;;;9.17;93.19
70909;BME280;58554;52.006;5.926;2022-12-20T13:30:00;100173.34;;;9.17;93.35
70909;BME280;58554;52.006;5.926;2022-12-20T13:32:56;100175.16;;;9.17;93.26
70909;BME280;58554;52.006;5.926;2022-12-20T13:35:52;100176.09;;;9.16;93.50
70909;BME280;58554;52.006;5.926;2022-12-20T13:38:50;100175.16;;;9.17;93.66
70909;BME280;58554;52.006;5.926;2022-12-20T13:41:36;100178.63;;;9.17;93.56
70909;BME280;58554;52.006;5.926;2022-12-20T13:44:20;100184.84;;;9.16;93.54